Terminal Aerodrome Forecast
Issued by NWS

Home | Current Version | Previous Version | Graphics & Text | Print | Product List | Glossary On
Versions: 1 2 3 4 5 6 7 8 9 10 11 12 13 14 15 16 17 18 19 20 21 22 23 24 25
165
FTUS43 KABR 162325
TAFATY
TAF
KATY 162325Z 1700/1724 36007KT P6SM OVC035
     FM170800 VRB03KT P6SM OVC020
      TEMPO 1710/1714 1SM BR OVC008
     FM171700 VRB04KT P6SM BKN050
     FM172300 VRB05KT P6SM SCT080=

USA.gov is the U.S. government's official web portal to all federal, state and local government web resources and services.